sensor_id;sensor_type;location;lat;lon;timestamp;pressure;altitude;pressure_sealevel;temperature;humidity
8627;BME280;4351;51.422;6.794;2022-11-14T00:02:05;99822.88;;;7.27;100.00
8627;BME280;4351;51.422;6.794;2022-11-14T00:04:53;99810.63;;;7.22;100.00
8627;BME280;4351;51.422;6.794;2022-11-14T00:07:39;99793.00;;;7.18;100.00
8627;BME280;4351;51.422;6.794;2022-11-14T00:10:26;99793.00;;;7.18;100.00
8627;BME280;4351;51.422;6.794;2022-11-14T00:13:13;99803.16;;;7.28;100.00
8627;BME280;4351;51.422;6.794;2022-11-14T00:15:59;99811.97;;;7.30;100.00
8627;BME280;4351;51.422;6.794;2022-11-14T00:18:46;99848.50;;;7.47;100.00
8627;BME280;4351;51.422;6.794;2022-11-14T00:21:34;99830.09;;;7.41;100.00
8627;BME280;4351;51.422;6.794;2022-11-14T00:24:20;99802.09;;;7.30;100.00
8627;BME280;4351;51.422;6.794;2022-11-14T00:27:07;99812.63;;;7.33;100.00
8627;BME280;4351;51.422;6.794;2022-11-14T00:29:54;99821.38;;;7.37;100.00
8627;BME280;4351;51.422;6.794;2022-11-14T00:32:41;99793.47;;;7.25;100.00
8627;BME280;4351;51.422;6.794;2022-11-14T00:35:27;99800.38;;;7.29;100.00
8627;BME280;4351;51.422;6.794;2022-11-14T00:38:15;99772.50;;;7.17;100.00
8627;BME280;4351;51.422;6.794;2022-11-14T00:41:02;99741.63;;;7.10;100.00
8627;BME280;4351;51.422;6.794;2022-11-14T00:43:48;99726.88;;;7.03;100.00
8627;BME280;4351;51.422;6.794;2022-11-14T00:46:35;99758.41;;;7.13;100.00
8627;BME280;4351;51.422;6.794;2022-11-14T00:49:22;99766.16;;;7.18;100.00
8627;BME280;4351;51.422;6.794;2022-11-14T00:52:09;99769.81;;;7.17;100.00
8627;BME280;4351;51.422;6.794;2022-11-14T00:54:57;99766.94;;;7.20;100.00
8627;BME280;4351;51.422;6.794;2022-11-14T00:57:44;99704.66;;;7.00;100.00
8627;BME280;4351;51.422;6.794;2022-11-14T01:00:31;99722.00;;;7.09;100.00
8627;BME280;4351;51.422;6.794;2022-11-14T01:03:17;99703.72;;;7.01;100.00
8627;BME280;4351;51.422;6.794;2022-11-14T01:06:06;99671.34;;;6.90;100.00
8627;BME280;4351;51.422;6.794;2022-11-14T01:08:53;99678.22;;;6.94;100.00
8627;BME280;4351;51.422;6.794;2022-11-14T01:11:41;99682.53;;;6.97;100.00
8627;BME280;4351;51.422;6.794;2022-11-14T01:14:28;99697.38;;;7.03;100.00
8627;BME280;4351;51.422;6.794;2022-11-14T01:17:15;99690.31;;;7.01;100.00
8627;BME280;4351;51.422;6.794;2022-11-14T01:20:01;99685.00;;;7.00;100.00
8627;BME280;4351;51.422;6.794;2022-11-14T01:22:48;99698.06;;;7.06;100.00
8627;BME280;4351;51.422;6.794;2022-11-14T01:25:36;99704.97;;;7.10;100.00
8627;BME280;4351;51.422;6.794;2022-11-14T01:28:24;99677.66;;;7.04;100.00
8627;BME280;4351;51.422;6.794;2022-11-14T01:31:14;99668.84;;;7.01;100.00
8627;BME280;4351;51.422;6.794;2022-11-14T01:34:00;99668.75;;;7.03;100.00
8627;BME280;4351;51.422;6.794;2022-11-14T01:36:47;99698.50;;;7.13;100.00
8627;BME280;4351;51.422;6.794;2022-11-14T01:39:33;99668.56;;;7.06;100.00
8627;BME280;4351;51.422;6.794;2022-11-14T01:42:20;99638.88;;;6.95;100.00
8627;BME280;4351;51.422;6.794;2022-11-14T01:45:44;99599.44;;;6.82;100.00
8627;BME280;4351;51.422;6.794;2022-11-14T01:48:37;99615.13;;;6.88;100.00
8627;BME280;4351;51.422;6.794;2022-11-14T01:51:28;99603.72;;;6.85;100.00
8627;BME280;4351;51.422;6.794;2022-11-14T01:54:19;99601.81;;;6.87;100.00
8627;BME280;4351;51.422;6.794;2022-11-14T01:57:09;99640.13;;;7.04;100.00
8627;BME280;4351;51.422;6.794;2022-11-14T02:00:00;99611.19;;;6.94;100.00
8627;BME280;4351;51.422;6.794;2022-11-14T02:02:49;99605.25;;;6.89;100.00
8627;BME280;4351;51.422;6.794;2022-11-14T02:05:36;99591.94;;;6.87;100.00
8627;BME280;4351;51.422;6.794;2022-11-14T02:08:23;99599.88;;;6.89;100.00
8627;BME280;4351;51.422;6.794;2022-11-14T02:11:12;99592.16;;;6.84;100.00
8627;BME280;4351;51.422;6.794;2022-11-14T02:13:58;99566.03;;;6.73;100.00
8627;BME280;4351;51.422;6.794;2022-11-14T02:16:45;99564.41;;;6.71;100.00
8627;BME280;4351;51.422;6.794;2022-11-14T02:19:55;99520.75;;;6.54;100.00
8627;BME280;4351;51.422;6.794;2022-11-14T02:22:50;99536.56;;;6.59;100.00
8627;BME280;4351;51.422;6.794;2022-11-14T02:25:37;99518.41;;;6.49;100.00
8627;BME280;4351;51.422;6.794;2022-11-14T02:28:25;99436.53;;;6.16;100.00
8627;BME280;4351;51.422;6.794;2022-11-14T02:31:12;99437.69;;;6.12;100.00
8627;BME280;4351;51.422;6.794;2022-11-14T02:33:59;99433.25;;;6.11;100.00
8627;BME280;4351;51.422;6.794;2022-11-14T02:36:46;99399.22;;;5.98;100.00
8627;BME280;4351;51.422;6.794;2022-11-14T02:39:34;99381.81;;;5.91;100.00
8627;BME280;4351;51.422;6.794;2022-11-14T02:42:20;99361.94;;;5.80;100.00
8627;BME280;4351;51.422;6.794;2022-11-14T02:45:08;99364.50;;;5.82;100.00
8627;BME280;4351;51.422;6.794;2022-11-14T02:47:54;99357.53;;;5.79;100.00
8627;BME280;4351;51.422;6.794;2022-11-14T02:50:42;99354.00;;;5.79;100.00
8627;BME280;4351;51.422;6.794;2022-11-14T02:53:28;99322.47;;;5.69;100.00
8627;BME280;4351;51.422;6.794;2022-11-14T02:56:16;99315.69;;;5.63;100.00
8627;BME280;4351;51.422;6.794;2022-11-14T02:59:03;99292.94;;;5.56;100.00
8627;BME280;4351;51.422;6.794;2022-11-14T03:01:49;99303.47;;;5.59;100.00
8627;BME280;4351;51.422;6.794;2022-11-14T03:04:36;99303.53;;;5.58;100.00
8627;BME280;4351;51.422;6.794;2022-11-14T03:07:23;99274.63;;;5.50;100.00
8627;BME280;4351;51.422;6.794;2022-11-14T03:10:10;99285.09;;;5.53;100.00
8627;BME280;4351;51.422;6.794;2022-11-14T03:12:59;99292.94;;;5.56;100.00
8627;BME280;4351;51.422;6.794;2022-11-14T03:15:45;99274.72;;;5.48;100.00
8627;BME280;4351;51.422;6.794;2022-11-14T03:18:32;99245.97;;;5.37;100.00
8627;BME280;4351;51.422;6.794;2022-11-14T03:21:20;99239.06;;;5.33;100.00
8627;BME280;4351;51.422;6.794;2022-11-14T03:24:07;99226.09;;;5.27;100.00
8627;BME280;4351;51.422;6.794;2022-11-14T03:26:53;99207.88;;;5.19;100.00
8627;BME280;4351;51.422;6.794;2022-11-14T03:29:41;99206.13;;;5.18;100.00
8627;BME280;4351;51.422;6.794;2022-11-14T03:32:28;99180.84;;;5.09;100.00
8627;BME280;4351;51.422;6.794;2022-11-14T03:35:14;99167.78;;;5.04;100.00
8627;BME280;4351;51.422;6.794;2022-11-14T03:38:01;99173.03;;;5.06;100.00
8627;BME280;4351;51.422;6.794;2022-11-14T03:40:48;99166.91;;;5.04;100.00
8627;BME280;4351;51.422;6.794;2022-11-14T03:43:35;99165.00;;;5.06;100.00
8627;BME280;4351;51.422;6.794;2022-11-14T03:46:23;99163.28;;;5.05;100.00
8627;BME280;4351;51.422;6.794;2022-11-14T03:49:09;99164.13;;;5.05;100.00
8627;BME280;4351;51.422;6.794;2022-11-14T03:51:55;99156.41;;;5.01;100.00
8627;BME280;4351;51.422;6.794;2022-11-14T03:54:42;99144.28;;;4.95;100.00
8627;BME280;4351;51.422;6.794;2022-11-14T03:57:29;99154.78;;;4.98;100.00
8627;BME280;4351;51.422;6.794;2022-11-14T04:00:16;99171.41;;;5.03;100.00
8627;BME280;4351;51.422;6.794;2022-11-14T04:03:04;99165.28;;;5.01;100.00
8627;BME280;4351;51.422;6.794;2022-11-14T04:05:51;99158.22;;;5.00;100.00
8627;BME280;4351;51.422;6.794;2022-11-14T04:08:38;99146.75;;;4.98;100.00
8627;BME280;4351;51.422;6.794;2022-11-14T04:11:25;99154.59;;;5.01;100.00
8627;BME280;4351;51.422;6.794;2022-11-14T04:14:12;99152.78;;;5.02;100.00
8627;BME280;4351;51.422;6.794;2022-11-14T04:16:59;99138.84;;;4.97;100.00
8627;BME280;4351;51.422;6.794;2022-11-14T04:19:47;99126.44;;;4.96;100.00
8627;BME280;4351;51.422;6.794;2022-11-14T04:22:34;99139.59;;;4.99;100.00
8627;BME280;4351;51.422;6.794;2022-11-14T04:25:21;99127.41;;;4.94;100.00
8627;BME280;4351;51.422;6.794;2022-11-14T04:28:08;99110.78;;;4.89;100.00
8627;BME280;4351;51.422;6.794;2022-11-14T04:30:54;99108.31;;;4.86;100.00
8627;BME280;4351;51.422;6.794;2022-11-14T04:33:41;99085.41;;;4.82;100.00
8627;BME280;4351;51.422;6.794;2022-11-14T04:36:29;99113.44;;;4.89;100.00
8627;BME280;4351;51.422;6.794;2022-11-14T04:39:16;99089.13;;;4.79;100.00
8627;BME280;4351;51.422;6.794;2022-11-14T04:42:03;99128.38;;;4.93;100.00
8627;BME280;4351;51.422;6.794;2022-11-14T04:44:49;99103.91;;;4.85;100.00
8627;BME280;4351;51.422;6.794;2022-11-14T04:47:37;99101.34;;;4.83;100.00
8627;BME280;4351;51.422;6.794;2022-11-14T04:50:24;99070.94;;;4.71;100.00
8627;BME280;4351;51.422;6.794;2022-11-14T04:53:12;99162.88;;;5.11;100.00
8627;BME280;4351;51.422;6.794;2022-11-14T04:55:58;99114.31;;;4.90;100.00
8627;BME280;4351;51.422;6.794;2022-11-14T04:58:45;99098.38;;;4.88;100.00
8627;BME280;4351;51.422;6.794;2022-11-14T05:01:31;99075.69;;;4.81;100.00
8627;BME280;4351;51.422;6.794;2022-11-14T05:04:18;99080.84;;;4.84;100.00
8627;BME280;4351;51.422;6.794;2022-11-14T05:07:04;99086.06;;;4.86;100.00
8627;BME280;4351;51.422;6.794;2022-11-14T05:09:52;99077.19;;;4.85;100.00
8627;BME280;4351;51.422;6.794;2022-11-14T05:12:39;99076.25;;;4.86;100.00
8627;BME280;4351;51.422;6.794;2022-11-14T05:15:26;99075.28;;;4.87;100.00
8627;BME280;4351;51.422;6.794;2022-11-14T05:18:12;99085.78;;;4.90;100.00
8627;BME280;4351;51.422;6.794;2022-11-14T05:20:59;99083.13;;;4.90;100.00
8627;BME280;4351;51.422;6.794;2022-11-14T05:23:46;99076.03;;;4.89;100.00
8627;BME280;4351;51.422;6.794;2022-11-14T05:26:34;99068.34;;;4.85;100.00
8627;BME280;4351;51.422;6.794;2022-11-14T05:29:21;99062.88;;;4.86;100.00
8627;BME280;4351;51.422;6.794;2022-11-14T05:32:08;99073.38;;;4.89;100.00
8627;BME280;4351;51.422;6.794;2022-11-14T05:35:00;99038.66;;;4.75;100.00
8627;BME280;4351;51.422;6.794;2022-11-14T05:37:46;99030.75;;;4.73;100.00
8627;BME280;4351;51.422;6.794;2022-11-14T05:40:33;99032.56;;;4.72;100.00
8627;BME280;4351;51.422;6.794;2022-11-14T05:43:21;99022.09;;;4.69;100.00
8627;BME280;4351;51.422;6.794;2022-11-14T05:46:09;99033.44;;;4.73;100.00
8627;BME280;4351;51.422;6.794;2022-11-14T05:48:56;99014.25;;;4.66;100.00
8627;BME280;4351;51.422;6.794;2022-11-14T05:51:43;99026.47;;;4.70;100.00
8627;BME280;4351;51.422;6.794;2022-11-14T05:54:29;99019.41;;;4.69;100.00
8627;BME280;4351;51.422;6.794;2022-11-14T05:57:16;99043.72;;;4.79;100.00
8627;BME280;4351;51.422;6.794;2022-11-14T06:00:05;99047.25;;;4.80;100.00
8627;BME280;4351;51.422;6.794;2022-11-14T06:02:51;99035.88;;;4.76;100.00
8627;BME280;4351;51.422;6.794;2022-11-14T06:05:38;99033.97;;;4.78;100.00
8627;BME280;4351;51.422;6.794;2022-11-14T06:08:26;99064.41;;;4.90;100.00
8627;BME280;4351;51.422;6.794;2022-11-14T06:11:16;99050.47;;;4.85;100.00
8627;BME280;4351;51.422;6.794;2022-11-14T06:14:03;99054.78;;;4.88;100.00
8627;BME280;4351;51.422;6.794;2022-11-14T06:16:56;99065.94;;;4.94;100.00
8627;BME280;4351;51.422;6.794;2022-11-14T06:19:43;99097.22;;;5.07;100.00
8627;BME280;4351;51.422;6.794;2022-11-14T06:22:30;99109.63;;;5.08;100.00
8627;BME280;4351;51.422;6.794;2022-11-14T06:25:17;99129.47;;;5.18;100.00
8627;BME280;4351;51.422;6.794;2022-11-14T06:28:04;99163.53;;;5.29;100.00
8627;BME280;4351;51.422;6.794;2022-11-14T06:30:51;99169.66;;;5.32;100.00
8627;BME280;4351;51.422;6.794;2022-11-14T06:33:43;99184.53;;;5.36;100.00
8627;BME280;4351;51.422;6.794;2022-11-14T06:36:29;99194.06;;;5.40;100.00
8627;BME280;4351;51.422;6.794;2022-11-14T06:39:16;99220.91;;;5.53;100.00
8627;BME280;4351;51.422;6.794;2022-11-14T06:42:02;99235.78;;;5.57;100.00
8627;BME280;4351;51.422;6.794;2022-11-14T06:44:49;99251.38;;;5.65;100.00
8627;BME280;4351;51.422;6.794;2022-11-14T06:47:35;99264.47;;;5.70;100.00
8627;BME280;4351;51.422;6.794;2022-11-14T06:50:23;99266.16;;;5.71;100.00
8627;BME280;4351;51.422;6.794;2022-11-14T06:53:10;99257.38;;;5.69;100.00
8627;BME280;4351;51.422;6.794;2022-11-14T06:55:58;99233.13;;;5.57;100.00
8627;BME280;4351;51.422;6.794;2022-11-14T06:58:46;99212.22;;;5.49;100.00
8627;BME280;4351;51.422;6.794;2022-11-14T07:01:33;99207.84;;;5.48;100.00
8627;BME280;4351;51.422;6.794;2022-11-14T07:04:20;99172.13;;;5.35;100.00
8627;BME280;4351;51.422;6.794;2022-11-14T07:07:08;99190.47;;;5.41;100.00
8627;BME280;4351;51.422;6.794;2022-11-14T07:09:55;99183.38;;;5.40;100.00
8627;BME280;4351;51.422;6.794;2022-11-14T07:12:43;99181.69;;;5.39;100.00
8627;BME280;4351;51.422;6.794;2022-11-14T07:15:29;99189.81;;;5.37;100.00
8627;BME280;4351;51.422;6.794;2022-11-14T07:18:16;99172.44;;;5.30;100.00
8627;BME280;4351;51.422;6.794;2022-11-14T07:21:04;99192.38;;;5.39;100.00
8627;BME280;4351;51.422;6.794;2022-11-14T07:23:53;99176.34;;;5.39;100.00
8627;BME280;4351;51.422;6.794;2022-11-14T07:26:39;99181.84;;;5.36;100.00
8627;BME280;4351;51.422;6.794;2022-11-14T07:29:26;99174.69;;;5.36;100.00
8627;BME280;4351;51.422;6.794;2022-11-14T07:32:13;99209.53;;;5.49;100.00
8627;BME280;4351;51.422;6.794;2022-11-14T07:35:00;99216.63;;;5.50;100.00
8627;BME280;4351;51.422;6.794;2022-11-14T07:37:47;99217.47;;;5.51;100.00
8627;BME280;4351;51.422;6.794;2022-11-14T07:40:35;99236.47;;;5.61;100.00
8627;BME280;4351;51.422;6.794;2022-11-14T07:43:22;99267.69;;;5.75;100.00
8627;BME280;4351;51.422;6.794;2022-11-14T07:46:11;99287.75;;;5.82;100.00
8627;BME280;4351;51.422;6.794;2022-11-14T07:48:57;99346.13;;;6.05;100.00
8627;BME280;4351;51.422;6.794;2022-11-14T07:51:44;99392.88;;;6.28;100.00
8627;BME280;4351;51.422;6.794;2022-11-14T07:54:31;99463.38;;;6.58;100.00
8627;BME280;4351;51.422;6.794;2022-11-14T07:57:19;99552.84;;;6.98;100.00
8627;BME280;4351;51.422;6.794;2022-11-14T08:00:07;99642.25;;;7.41;100.00
8627;BME280;4351;51.422;6.794;2022-11-14T08:02:58;99826.06;;;8.20;100.00
8627;BME280;4351;51.422;6.794;2022-11-14T08:05:59;99984.50;;;8.93;100.00
8627;BME280;4351;51.422;6.794;2022-11-14T08:08:46;99922.91;;;8.75;100.00
8627;BME280;4351;51.422;6.794;2022-11-14T08:11:33;99878.47;;;8.55;100.00
8627;BME280;4351;51.422;6.794;2022-11-14T08:14:37;99902.84;;;8.66;100.00
8627;BME280;4351;51.422;6.794;2022-11-14T08:17:23;99872.53;;;8.49;100.00
8627;BME280;4351;51.422;6.794;2022-11-14T08:20:18;99818.19;;;8.31;100.00
8627;BME280;4351;51.422;6.794;2022-11-14T08:23:05;99796.22;;;8.24;100.00
8627;BME280;4351;51.422;6.794;2022-11-14T08:25:52;99765.63;;;8.12;100.00
8627;BME280;4351;51.422;6.794;2022-11-14T08:28:39;99780.41;;;8.20;100.00
8627;BME280;4351;51.422;6.794;2022-11-14T08:31:27;99748.97;;;8.07;100.00
8627;BME280;4351;51.422;6.794;2022-11-14T08:34:14;99761.13;;;8.13;100.00
8627;BME280;4351;51.422;6.794;2022-11-14T08:37:01;99774.16;;;8.19;100.00
8627;BME280;4351;51.422;6.794;2022-11-14T08:39:48;99803.97;;;8.29;100.00
8627;BME280;4351;51.422;6.794;2022-11-14T08:42:35;99802.06;;;8.31;100.00
8627;BME280;4351;51.422;6.794;2022-11-14T08:45:22;99802.81;;;8.33;100.00
8627;BME280;4351;51.422;6.794;2022-11-14T08:48:10;99816.72;;;8.40;100.00
8627;BME280;4351;51.422;6.794;2022-11-14T08:50:57;99777.41;;;8.24;100.00
8627;BME280;4351;51.422;6.794;2022-11-14T08:53:43;99712.53;;;8.03;100.00
8627;BME280;4351;51.422;6.794;2022-11-14T08:56:30;99740.69;;;8.10;100.00
8627;BME280;4351;51.422;6.794;2022-11-14T08:59:17;99685.72;;;7.88;100.00
8627;BME280;4351;51.422;6.794;2022-11-14T09:02:03;99691.66;;;7.93;100.00
8627;BME280;4351;51.422;6.794;2022-11-14T09:04:51;99732.75;;;8.09;100.00
8627;BME280;4351;51.422;6.794;2022-11-14T09:07:38;99666.28;;;7.85;100.00
8627;BME280;4351;51.422;6.794;2022-11-14T09:10:25;99705.44;;;8.02;100.00
8627;BME280;4351;51.422;6.794;2022-11-14T09:13:12;99741.56;;;8.11;100.00
8627;BME280;4351;51.422;6.794;2022-11-14T09:15:59;99736.31;;;8.09;100.00
8627;BME280;4351;51.422;6.794;2022-11-14T09:18:45;99808.06;;;8.35;100.00
8627;BME280;4351;51.422;6.794;2022-11-14T09:21:33;99798.50;;;8.31;100.00
8627;BME280;4351;51.422;6.794;2022-11-14T09:24:20;99853.63;;;8.51;100.00
8627;BME280;4351;51.422;6.794;2022-11-14T09:27:07;99791.69;;;8.25;100.00
8627;BME280;4351;51.422;6.794;2022-11-14T09:29:54;99740.91;;;8.07;100.00
8627;BME280;4351;51.422;6.794;2022-11-14T09:32:40;99787.41;;;8.22;100.00
8627;BME280;4351;51.422;6.794;2022-11-14T09:35:27;99784.78;;;8.21;100.00
8627;BME280;4351;51.422;6.794;2022-11-14T09:38:16;99811.72;;;8.34;100.00
8627;BME280;4351;51.422;6.794;2022-11-14T09:41:12;99794.28;;;8.26;100.00
8627;BME280;4351;51.422;6.794;2022-11-14T09:44:14;99735.94;;;8.01;100.00
8627;BME280;4351;51.422;6.794;2022-11-14T09:47:09;99791.03;;;8.21;100.00
8627;BME280;4351;51.422;6.794;2022-11-14T09:50:09;99774.44;;;8.14;100.00
8627;BME280;4351;51.422;6.794;2022-11-14T09:52:59;99789.97;;;8.24;100.00
8627;BME280;4351;51.422;6.794;2022-11-14T09:55:50;99760.25;;;8.12;100.00
8627;BME280;4351;51.422;6.794;2022-11-14T09:58:39;99799.56;;;8.28;100.00
8627;BME280;4351;51.422;6.794;2022-11-14T10:01:34;99863.88;;;8.59;100.00
8627;BME280;4351;51.422;6.794;2022-11-14T10:04:33;99790.44;;;8.31;100.00
8627;BME280;4351;51.422;6.794;2022-11-14T10:07:30;99769.53;;;8.21;100.00
8627;BME280;4351;51.422;6.794;2022-11-14T10:10:33;99767.63;;;8.23;100.00
8627;BME280;4351;51.422;6.794;2022-11-14T10:13:33;99827.34;;;8.42;100.00
8627;BME280;4351;51.422;6.794;2022-11-14T10:16:30;99822.72;;;8.44;100.00
8627;BME280;4351;51.422;6.794;2022-11-14T10:19:26;99839.00;;;8.55;100.00
8627;BME280;4351;51.422;6.794;2022-11-14T10:22:29;99863.59;;;8.64;100.00
8627;BME280;4351;51.422;6.794;2022-11-14T10:25:23;99771.75;;;8.29;100.00
8627;BME280;4351;51.422;6.794;2022-11-14T10:28:20;99737.53;;;8.18;100.00
8627;BME280;4351;51.422;6.794;2022-11-14T10:31:25;99765.50;;;8.28;100.00
8627;BME280;4351;51.422;6.794;2022-11-14T10:34:24;99820.59;;;8.49;100.00
8627;BME280;4351;51.422;6.794;2022-11-14T10:37:18;99772.50;;;8.31;100.00
8627;BME280;4351;51.422;6.794;2022-11-14T10:40:19;99769.88;;;8.30;100.00
8627;BME280;4351;51.422;6.794;2022-11-14T10:43:17;99752.81;;;8.31;100.00
8627;BME280;4351;51.422;6.794;2022-11-14T10:46:09;99767.88;;;8.33;100.00
8627;BME280;4351;51.422;6.794;2022-11-14T10:48:59;99760.75;;;8.32;100.00
8627;BME280;4351;51.422;6.794;2022-11-14T10:51:49;99742.38;;;8.26;100.00
8627;BME280;4351;51.422;6.794;2022-11-14T10:54:40;99749.38;;;8.28;100.00
8627;BME280;4351;51.422;6.794;2022-11-14T10:57:29;99804.47;;;8.49;100.00
8627;BME280;4351;51.422;6.794;2022-11-14T11:00:18;99780.69;;;8.43;100.00
8627;BME280;4351;51.422;6.794;2022-11-14T11:03:07;99785.66;;;8.49;100.00
8627;BME280;4351;51.422;6.794;2022-11-14T11:05:55;99799.88;;;8.51;100.00
8627;BME280;4351;51.422;6.794;2022-11-14T11:08:42;99861.69;;;8.79;100.00
8627;BME280;4351;51.422;6.794;2022-11-14T11:11:55;99823.25;;;8.64;100.00
8627;BME280;4351;51.422;6.794;2022-11-14T11:14:43;99852.22;;;8.73;100.00
8627;BME280;4351;51.422;6.794;2022-11-14T11:17:30;99898.63;;;8.90;100.00
8627;BME280;4351;51.422;6.794;2022-11-14T11:20:27;99914.34;;;8.96;100.00
8627;BME280;4351;51.422;6.794;2022-11-14T11:23:21;99912.22;;;9.01;100.00
8627;BME280;4351;51.422;6.794;2022-11-14T11:26:17;99904.16;;;9.01;100.00
8627;BME280;4351;51.422;6.794;2022-11-14T11:29:14;99901.47;;;9.01;100.00
8627;BME280;4351;51.422;6.794;2022-11-14T11:32:04;99932.91;;;9.14;100.00
8627;BME280;4351;51.422;6.794;2022-11-14T11:35:00;99941.56;;;9.19;100.00
8627;BME280;4351;51.422;6.794;2022-11-14T11:37:50;99926.59;;;9.15;100.00
8627;BME280;4351;51.422;6.794;2022-11-14T11:40:45;99943.59;;;9.28;100.00
8627;BME280;4351;51.422;6.794;2022-11-14T11:43:47;99943.72;;;9.27;100.00
8627;BME280;4351;51.422;6.794;2022-11-14T11:46:45;99967.31;;;9.36;100.00
8627;BME280;4351;51.422;6.794;2022-11-14T11:49:42;100042.13;;;9.72;100.00
8627;BME280;4351;51.422;6.794;2022-11-14T11:52:49;100031.44;;;9.70;100.00
8627;BME280;4351;51.422;6.794;2022-11-14T11:55:41;100056.88;;;9.79;100.00
8627;BME280;4351;51.422;6.794;2022-11-14T11:58:36;100108.66;;;9.97;100.00
8627;BME280;4351;51.422;6.794;2022-11-14T12:01:25;100060.66;;;9.89;100.00
8627;BME280;4351;51.422;6.794;2022-11-14T12:04:15;100008.63;;;9.76;100.00
8627;BME280;4351;51.422;6.794;2022-11-14T12:07:13;99967.03;;;9.67;100.00
8627;BME280;4351;51.422;6.794;2022-11-14T12:10:12;100004.53;;;9.83;100.00
8627;BME280;4351;51.422;6.794;2022-11-14T12:16:38;99982.34;;;9.80;100.00
8627;BME280;4351;51.422;6.794;2022-11-14T12:19:49;100043.13;;;9.97;100.00
8627;BME280;4351;51.422;6.794;2022-11-14T12:26:04;100019.84;;;9.96;100.00
8627;BME280;4351;51.422;6.794;2022-11-14T12:29:09;100018.13;;;9.95;100.00
8627;BME280;4351;51.422;6.794;2022-11-14T12:32:12;99995.94;;;9.91;100.00
8627;BME280;4351;51.422;6.794;2022-11-14T12:35:02;99965.44;;;9.77;100.00
8627;BME280;4351;51.422;6.794;2022-11-14T12:37:53;100005.53;;;9.95;100.00
8627;BME280;4351;51.422;6.794;2022-11-14T12:40:48;100005.84;;;9.91;100.00
8627;BME280;4351;51.422;6.794;2022-11-14T12:43:37;100041.44;;;10.09;100.00
8627;BME280;4351;51.422;6.794;2022-11-14T12:46:25;99925.88;;;9.65;100.00
8627;BME280;4351;51.422;6.794;2022-11-14T12:49:38;99983.66;;;9.87;100.00
8627;BME280;4351;51.422;6.794;2022-11-14T12:52:47;99990.75;;;9.88;100.00
8627;BME280;4351;51.422;6.794;2022-11-14T12:55:54;99975.13;;;9.80;100.00
8627;BME280;4351;51.422;6.794;2022-11-14T12:58:53;99969.06;;;9.76;100.00
8627;BME280;4351;51.422;6.794;2022-11-14T13:01:49;100019.00;;;9.95;100.00
8627;BME280;4351;51.422;6.794;2022-11-14T13:04:49;100020.94;;;9.93;100.00
8627;BME280;4351;51.422;6.794;2022-11-14T13:07:47;100007.03;;;9.86;100.00
8627;BME280;4351;51.422;6.794;2022-11-14T13:10:38;100067.63;;;10.07;100.00
8627;BME280;4351;51.422;6.794;2022-11-14T13:13:25;100027.81;;;9.97;100.00
8627;BME280;4351;51.422;6.794;2022-11-14T13:16:30;100032.47;;;9.95;100.00
8627;BME280;4351;51.422;6.794;2022-11-14T13:19:45;100007.88;;;9.87;100.00
8627;BME280;4351;51.422;6.794;2022-11-14T13:22:49;99954.66;;;9.64;100.00
8627;BME280;4351;51.422;6.794;2022-11-14T13:25:36;99985.97;;;9.78;100.00
8627;BME280;4351;51.422;6.794;2022-11-14T13:28:46;99953.47;;;9.69;100.00
8627;BME280;4351;51.422;6.794;2022-11-14T13:31:47;99955.16;;;9.70;100.00
8627;BME280;4351;51.422;6.794;2022-11-14T13:34:38;99994.75;;;9.82;100.00
8627;BME280;4351;51.422;6.794;2022-11-14T13:37:39;100033.75;;;10.03;100.00
8627;BME280;4351;51.422;6.794;2022-11-14T13:40:33;100019.94;;;9.94;100.00
8627;BME280;4351;51.422;6.794;2022-11-14T13:43:31;99969.94;;;9.77;100.00
8627;BME280;4351;51.422;6.794;2022-11-14T13:46:32;99949.91;;;9.68;100.00
8627;BME280;4351;51.422;6.794;2022-11-14T13:49:39;99961.84;;;9.77;100.00
8627;BME280;4351;51.422;6.794;2022-11-14T13:52:39;99914.56;;;9.60;100.00
8627;BME280;4351;51.422;6.794;2022-11-14T13:55:31;99947.75;;;9.73;100.00
8627;BME280;4351;51.422;6.794;2022-11-14T13:58:32;99938.06;;;9.71;100.00
8627;BME280;4351;51.422;6.794;2022-11-14T14:01:29;99947.88;;;9.72;100.00
8627;BME280;4351;51.422;6.794;2022-11-14T14:04:33;99985.34;;;9.88;100.00
8627;BME280;4351;51.422;6.794;2022-11-14T14:07:35;99941.38;;;9.74;100.00
8627;BME280;4351;51.422;6.794;2022-11-14T14:10:31;99905.63;;;9.59;100.00
8627;BME280;4351;51.422;6.794;2022-11-14T14:13:32;99918.75;;;9.64;100.00
8627;BME280;4351;51.422;6.794;2022-11-14T14:16:33;99913.63;;;9.61;100.00
8627;BME280;4351;51.422;6.794;2022-11-14T14:19:29;99950.00;;;9.80;100.00
8627;BME280;4351;51.422;6.794;2022-11-14T14:22:25;99921.13;;;9.69;100.00
8627;BME280;4351;51.422;6.794;2022-11-14T14:25:21;99946.25;;;9.82;100.00
8627;BME280;4351;51.422;6.794;2022-11-14T14:28:17;99905.84;;;9.69;100.00
8627;BME280;4351;51.422;6.794;2022-11-14T14:31:10;99917.81;;;9.78;100.00
8627;BME280;4351;51.422;6.794;2022-11-14T14:33:57;99896.03;;;9.68;100.00
8627;BME280;4351;51.422;6.794;2022-11-14T14:36:48;99900.47;;;9.69;100.00
8627;BME280;4351;51.422;6.794;2022-11-14T14:39:36;99894.31;;;9.67;100.00
8627;BME280;4351;51.422;6.794;2022-11-14T14:42:24;99917.06;;;9.76;100.00
8627;BME280;4351;51.422;6.794;2022-11-14T14:45:20;99919.63;;;9.77;100.00
8627;BME280;4351;51.422;6.794;2022-11-14T14:48:12;99903.91;;;9.71;100.00
8627;BME280;4351;51.422;6.794;2022-11-14T14:50:59;99896.59;;;9.73;100.00
8627;BME280;4351;51.422;6.794;2022-11-14T14:53:50;99974.13;;;10.07;100.00
8627;BME280;4351;51.422;6.794;2022-11-14T14:56:37;99928.66;;;9.89;100.00
8627;BME280;4351;51.422;6.794;2022-11-14T14:59:27;99893.88;;;9.73;100.00
8627;BME280;4351;51.422;6.794;2022-11-14T15:02:16;99886.69;;;9.74;100.00
8627;BME280;4351;51.422;6.794;2022-11-14T15:05:04;99857.69;;;9.64;100.00
8627;BME280;4351;51.422;6.794;2022-11-14T15:07:53;99864.72;;;9.67;100.00
8627;BME280;4351;51.422;6.794;2022-11-14T15:10:41;99918.31;;;9.83;100.00
8627;BME280;4351;51.422;6.794;2022-11-14T15:13:29;99886.88;;;9.71;100.00
8627;BME280;4351;51.422;6.794;2022-11-14T15:16:18;99890.31;;;9.73;100.00
8627;BME280;4351;51.422;6.794;2022-11-14T15:19:08;99890.97;;;9.76;100.00
8627;BME280;4351;51.422;6.794;2022-11-14T15:22:02;99878.69;;;9.72;100.00
8627;BME280;4351;51.422;6.794;2022-11-14T15:25:15;99940.75;;;9.97;100.00
8627;BME280;4351;51.422;6.794;2022-11-14T15:28:02;99902.91;;;9.85;100.00
8627;BME280;4351;51.422;6.794;2022-11-14T15:30:56;99869.53;;;9.75;100.00
8627;BME280;4351;51.422;6.794;2022-11-14T15:33:59;99886.88;;;9.84;100.00